Terminal Aerodrome Forecast
Issued by NWS Twin Cities, MN

Home | Current Version | Previous Version | Text Only | Print | Product List | Glossary On
Versions: 1 2 3 4 5 6 7 8 9 10 11 12 13 14 15 16 17 18 19
000
FTUS43 KMPX 250905 AAA
TAFSTC
TAF AMD
KSTC 250905Z 2509/2606 16010KT 6SM -SHRA VCTS OVC012CB
      TEMPO 2509/2512 4SM TSRA BR OVC008CB
     FM251200 20007KT P6SM OVC015
     FM251400 23012KT P6SM SCT020 BKN050
     FM251600 25013G20KT P6SM OVC035
     FM251800 28020G29KT P6SM VCSH OVC025
     FM260000 28015G23KT P6SM -RA OVC050=

USA.gov is the U.S. government's official web portal to all federal, state and local government web resources and services.